Time;durP1;ratioP1;P1;durP2;ratioP2;P2;SDS_P1;SDS_P2;PMS_P1;PMS_P2;Temp;Humidity;BMP_temperature;BMP_pressure;BME280_temperature;BME280_humidity;BME280_pressure;Samples;Min_cycle;Max_cycle;Signal;HPM_P1;HPM_P2
2022/07/05 00:00:22;;;;;;;3.13;1.80;;;14.80;99.90;;;;;;5041318;28;20210;-64
2022/07/05 00:02:49;;;;;;;2.07;1.10;;;14.80;99.90;;;;;;5034781;28;20222;-64
2022/07/05 00:05:16;;;;;;;3.13;1.37;;;14.80;99.90;;;;;;5039284;28;20206;-64
2022/07/05 00:07:43;;;;;;;2.77;1.67;;;14.80;99.90;;;;;;5040708;28;20203;-63
2022/07/05 00:10:11;;;;;;;3.27;1.60;;;14.80;99.90;;;;;;5027246;28;20222;-68
2022/07/05 00:12:38;;;;;;;4.17;1.87;;;14.80;99.90;;;;;;5029997;28;21353;-67
2022/07/05 00:15:05;;;;;;;2.23;1.43;;;14.80;99.90;;;;;;5043330;28;20199;-68
2022/07/05 00:17:32;;;;;;;2.37;1.53;;;14.80;99.90;;;;;;5030849;28;20196;-69
2022/07/05 00:19:59;;;;;;;2.73;2.03;;;14.70;99.90;;;;;;5043702;28;20200;-65
2022/07/05 00:22:25;;;;;;;2.67;1.43;;;14.70;99.90;;;;;;5038012;28;20204;-67
2022/07/05 00:24:52;;;;;;;1.90;1.47;;;14.80;99.90;;;;;;5022638;28;20695;-66
2022/07/05 00:27:21;;;;;;;2.73;1.40;;;14.70;99.90;;;;;;5040068;28;20202;-63
2022/07/05 00:29:48;;;;;;;2.50;1.57;;;14.70;99.90;;;;;;5054077;28;20204;-65
2022/07/05 00:32:15;;;;;;;1.80;1.40;;;14.70;99.90;;;;;;5041674;28;20657;-67
2022/07/05 00:34:42;;;;;;;1.90;1.73;;;14.70;99.90;;;;;;5026020;28;20962;-65
2022/07/05 00:37:09;;;;;;;2.03;1.70;;;14.70;99.90;;;;;;5038808;28;20559;-71
2022/07/05 00:39:36;;;;;;;1.53;1.23;;;14.70;99.90;;;;;;5022666;28;20207;-74
2022/07/05 00:42:04;;;;;;;1.67;1.27;;;14.60;99.90;;;;;;5036868;28;20208;-74
2022/07/05 00:44:34;;;;;;;4.43;1.23;;;14.60;99.90;;;;;;5028585;28;20231;-69
2022/07/05 00:47:02;;;;;;;1.67;1.40;;;14.60;99.90;;;;;;5040037;28;20207;-69
2022/07/05 00:49:30;;;;;;;4.00;1.37;;;14.60;99.90;;;;;;5030180;28;20207;-70
2022/07/05 00:51:56;;;;;;;2.33;1.40;;;14.60;99.90;;;;;;5035787;28;20195;-70
2022/07/05 00:54:23;;;;;;;3.30;1.13;;;14.60;99.90;;;;;;5030533;28;20257;-69
2022/07/05 00:56:50;;;;;;;3.07;1.30;;;14.60;99.90;;;;;;5035221;28;20361;-69
2022/07/05 00:59:17;;;;;;;2.80;1.47;;;14.60;99.90;;;;;;5035491;28;20264;-67
2022/07/05 01:01:46;;;;;;;2.80;1.80;;;14.60;99.90;;;;;;5039627;28;20180;-67
2022/07/05 01:04:13;;;;;;;2.77;1.40;;;14.50;99.90;;;;;;5034854;28;20226;-67
2022/07/05 01:06:42;;;;;;;2.87;1.30;;;14.50;99.90;;;;;;5037315;28;20199;-67
2022/07/05 01:09:12;;;;;;;1.30;1.20;;;14.50;99.90;;;;;;5036343;28;20664;-67
2022/07/05 01:11:40;;;;;;;2.87;1.30;;;14.50;99.90;;;;;;5020310;28;20230;-67
2022/07/05 01:14:10;;;;;;;1.70;1.30;;;14.40;99.90;;;;;;5031239;28;20232;-67
2022/07/05 01:16:38;;;;;;;2.17;1.50;;;14.40;99.90;;;;;;5038740;28;20187;-64
2022/07/05 01:19:07;;;;;;;1.90;1.80;;;14.40;99.90;;;;;;5021630;28;20191;-66
2022/07/05 01:21:40;;;;;;;3.23;1.17;;;14.40;99.90;;;;;;5030618;28;20203;-66
2022/07/05 01:24:09;;;;;;;2.60;1.30;;;14.40;99.90;;;;;;5040921;28;20224;-67
2022/07/05 01:26:37;;;;;;;5.80;1.70;;;14.30;99.90;;;;;;5022603;28;20290;-67
2022/07/05 01:29:04;;;;;;;2.93;1.83;;;14.60;99.90;;;;;;5039333;28;20203;-68
2022/07/05 01:31:31;;;;;;;2.27;1.50;;;14.20;99.90;;;;;;5029542;28;20210;-68
2022/07/05 01:33:58;;;;;;;2.53;1.63;;;14.30;99.90;;;;;;5042683;28;20215;-72
2022/07/05 01:36:25;;;;;;;2.33;1.50;;;14.30;99.90;;;;;;5032597;28;20281;-70
2022/07/05 01:38:53;;;;;;;3.97;1.70;;;;;;;;;;5043086;28;20285;-67
2022/07/05 01:41:21;;;;;;;3.80;1.93;;;14.20;99.90;;;;;;5039184;28;20203;-66
2022/07/05 01:43:48;;;;;;;2.50;1.80;;;14.10;99.90;;;;;;5033552;28;20223;-67
2022/07/05 01:46:18;;;;;;;3.53;1.67;;;14.10;99.90;;;;;;5029612;28;20698;-64
2022/07/05 01:48:45;;;;;;;2.17;1.50;;;14.10;99.90;;;;;;5040158;28;20195;-69
2022/07/05 01:51:19;;;;;;;3.30;1.73;;;14.10;99.90;;;;;;5032970;28;20855;-67
2022/07/05 01:53:49;;;;;;;2.53;1.60;;;14.10;99.90;;;;;;5042345;28;20257;-63
2022/07/05 01:56:16;;;;;;;2.97;1.73;;;14.10;99.90;;;;;;5041022;28;20199;-69
2022/07/05 01:58:46;;;;;;;1.83;1.67;;;14.10;99.90;;;;;;5032725;28;20200;-67
2022/07/05 02:01:13;;;;;;;2.10;1.90;;;14.00;99.90;;;;;;5037319;28;20199;-69
2022/07/05 02:03:41;;;;;;;1.83;1.60;;;14.00;99.90;;;;;;5041930;28;20226;-64
2022/07/05 02:06:10;;;;;;;3.03;1.73;;;14.00;99.90;;;;;;5038082;28;20231;-66
2022/07/05 02:08:36;;;;;;;2.73;1.73;;;14.00;99.90;;;;;;5034825;28;21133;-67
2022/07/05 02:11:08;;;;;;;3.00;1.57;;;14.00;99.90;;;;;;5038591;28;20207;-67
2022/07/05 02:13:35;;;;;;;2.37;1.60;;;14.00;99.90;;;;;;5025773;28;20319;-65
2022/07/05 02:16:05;;;;;;;7.83;2.03;;;14.00;99.90;;;;;;5034929;28;20471;-65
2022/07/05 02:18:32;;;;;;;2.97;2.27;;;13.90;99.90;;;;;;5039885;28;20203;-63
2022/07/05 02:20:59;;;;;;;3.33;1.63;;;13.90;99.90;;;;;;5042352;28;20275;-67
2022/07/05 02:23:26;;;;;;;3.33;1.80;;;;;;;;;;5024964;28;20303;-66
2022/07/05 02:25:54;;;;;;;2.13;2.03;;;13.80;99.90;;;;;;5031564;28;20214;-67
2022/07/05 02:28:21;;;;;;;4.10;1.90;;;13.80;99.90;;;;;;5029501;28;20203;-67
2022/07/05 02:30:50;;;;;;;2.60;2.17;;;13.80;99.90;;;;;;5033621;28;20326;-68
2022/07/05 02:33:19;;;;;;;3.67;1.73;;;13.70;99.90;;;;;;5059833;28;20219;-68
2022/07/05 02:35:47;;;;;;;5.00;1.80;;;13.70;99.90;;;;;;5041217;28;20425;-66
2022/07/05 02:38:14;;;;;;;5.23;1.83;;;13.70;99.90;;;;;;5031969;28;20215;-65
2022/07/05 02:40:41;;;;;;;2.33;1.70;;;13.60;99.90;;;;;;5055510;28;20262;-66
2022/07/05 02:43:09;;;;;;;2.87;1.90;;;13.60;99.90;;;;;;5043485;28;20692;-68
2022/07/05 02:45:36;;;;;;;3.20;2.20;;;13.60;99.90;;;;;;5016504;28;20916;-65
2022/07/05 02:48:03;;;;;;;2.43;2.20;;;13.60;99.90;;;;;;5041789;28;20195;-66
2022/07/05 02:50:33;;;;;;;3.53;2.20;;;13.60;99.90;;;;;;5033166;28;20206;-65
2022/07/05 02:53:01;;;;;;;6.37;1.93;;;13.60;99.90;;;;;;5037244;28;20230;-64
2022/07/05 02:55:28;;;;;;;2.57;2.10;;;13.60;99.90;;;;;;5028417;28;20192;-65
2022/07/05 02:57:57;;;;;;;6.67;2.00;;;13.50;99.90;;;;;;5036456;28;20286;-64
2022/07/05 03:00:25;;;;;;;3.13;1.90;;;13.60;99.90;;;;;;5012632;28;20212;-63
2022/07/05 03:02:52;;;;;;;2.77;1.80;;;13.50;99.90;;;;;;5035805;28;20215;-65
2022/07/05 03:05:19;;;;;;;4.73;2.30;;;13.60;99.90;;;;;;5032642;28;20213;-65
2022/07/05 03:07:56;;;;;;;2.37;2.17;;;13.50;99.90;;;;;;5042751;28;20219;-63
2022/07/05 03:10:25;;;;;;;4.93;2.07;;;13.50;99.90;;;;;;5034148;28;21472;-63
2022/07/05 03:12:53;;;;;;;2.90;1.83;;;13.50;99.90;;;;;;5042655;28;20211;-63
2022/07/05 03:15:20;;;;;;;6.93;2.10;;;13.50;99.90;;;;;;5030559;28;20195;-64
2022/07/05 03:17:48;;;;;;;4.10;2.20;;;13.40;99.90;;;;;;5024027;28;20203;-65
2022/07/05 03:20:17;;;;;;;3.83;2.27;;;13.40;99.90;;;;;;5036602;28;20202;-66
2022/07/05 03:22:45;;;;;;;3.67;2.27;;;13.40;99.90;;;;;;5035661;28;20250;-63
2022/07/05 03:25:13;;;;;;;3.27;2.27;;;13.30;99.90;;;;;;5030650;28;20228;-63
2022/07/05 03:27:41;;;;;;;2.43;2.00;;;13.30;99.90;;;;;;5039448;28;20203;-63
2022/07/05 03:30:09;;;;;;;2.67;2.07;;;13.30;99.90;;;;;;5042713;28;20199;-63
2022/07/05 03:32:38;;;;;;;4.50;2.10;;;13.30;99.90;;;;;;5017179;28;20350;-63
2022/07/05 03:35:07;;;;;;;5.87;2.60;;;13.30;99.90;;;;;;5055094;28;20205;-63
2022/07/05 03:37:34;;;;;;;5.77;3.40;;;13.30;99.90;;;;;;5036986;28;20223;-63
2022/07/05 03:40:01;;;;;;;5.83;3.10;;;13.30;99.90;;;;;;5043926;28;20664;-63
2022/07/05 03:42:30;;;;;;;4.00;2.97;;;13.30;99.90;;;;;;5031862;28;20694;-63
2022/07/05 03:44:57;;;;;;;3.33;2.57;;;13.30;99.90;;;;;;5043039;28;20218;-65
2022/07/05 03:47:24;;;;;;;4.10;3.33;;;13.30;99.90;;;;;;5025088;28;20211;-64
2022/07/05 03:49:51;;;;;;;3.53;3.10;;;13.30;99.90;;;;;;5033218;28;20200;-65
2022/07/05 03:52:18;;;;;;;3.73;2.67;;;13.30;99.90;;;;;;5041743;28;20244;-65
2022/07/05 03:54:45;;;;;;;3.93;2.70;;;13.30;99.90;;;;;;5038122;28;20216;-65
2022/07/05 03:57:12;;;;;;;3.50;2.60;;;13.30;99.90;;;;;;5032863;28;20210;-67
2022/07/05 03:59:41;;;;;;;3.00;2.70;;;13.30;99.90;;;;;;5039303;28;20191;-68
2022/07/05 04:02:09;;;;;;;2.90;2.37;;;13.30;99.90;;;;;;5039582;28;20199;-66
2022/07/05 04:04:36;;;;;;;2.70;2.10;;;13.30;99.90;;;;;;5007869;28;20220;-66
2022/07/05 04:07:03;;;;;;;2.53;2.07;;;13.40;99.90;;;;;;5044012;28;20675;-64
2022/07/05 04:09:30;;;;;;;2.97;2.27;;;13.40;99.90;;;;;;5037117;28;20210;-63
2022/07/05 04:11:58;;;;;;;3.83;2.67;;;13.30;99.90;;;;;;5032146;28;20196;-64
2022/07/05 04:14:25;;;;;;;4.93;2.77;;;13.40;99.90;;;;;;5022239;28;20270;-67
2022/07/05 04:16:54;;;;;;;2.87;2.33;;;13.40;99.90;;;;;;5040863;28;20203;-66
2022/07/05 04:19:21;;;;;;;3.57;2.30;;;13.40;99.90;;;;;;5014658;28;20904;-69
2022/07/05 04:21:48;;;;;;;4.40;2.73;;;13.40;99.90;;;;;;5037272;28;20396;-65
2022/07/05 04:24:16;;;;;;;2.90;2.53;;;13.40;99.90;;;;;;5024831;28;20319;-67
2022/07/05 04:26:44;;;;;;;4.80;2.90;;;13.50;99.90;;;;;;5041740;28;20199;-64
2022/07/05 04:29:11;;;;;;;6.60;3.10;;;13.50;99.90;;;;;;5048094;28;20793;-67
2022/07/05 04:31:39;;;;;;;5.37;2.70;;;13.60;99.90;;;;;;5036498;28;20203;-69
2022/07/05 04:34:08;;;;;;;5.83;2.73;;;13.60;99.90;;;;;;5020175;28;20924;-68
2022/07/05 04:36:40;;;;;;;3.10;2.87;;;13.70;99.90;;;;;;5044820;28;20698;-68
2022/07/05 04:39:08;;;;;;;5.80;3.10;;;13.70;99.90;;;;;;5027870;28;20195;-67
2022/07/05 04:41:39;;;;;;;3.60;3.30;;;13.80;99.90;;;;;;5041273;28;20199;-67
2022/07/05 04:44:08;;;;;;;3.10;2.73;;;13.80;99.90;;;;;;5030748;28;20996;-66
2022/07/05 04:46:35;;;;;;;4.07;2.87;;;13.90;99.90;;;;;;5036514;28;20572;-66
2022/07/05 04:49:02;;;;;;;4.83;2.80;;;13.90;99.90;;;;;;5024468;28;20261;-66
2022/07/05 04:51:31;;;;;;;2.93;2.13;;;14.00;99.90;;;;;;5028009;28;20206;-66
2022/07/05 04:53:58;;;;;;;2.92;2.65;;;14.00;99.90;;;;;;5029042;28;20812;-65
2022/07/05 04:56:25;;;;;;;5.37;2.50;;;14.10;99.90;;;;;;5032328;28;20207;-65
2022/07/05 04:58:52;;;;;;;3.37;2.60;;;14.10;99.90;;;;;;5034753;28;20202;-65
2022/07/05 05:01:19;;;;;;;5.30;2.67;;;14.20;99.90;;;;;;5039672;28;20192;-67
2022/07/05 05:03:46;;;;;;;5.37;2.40;;;14.20;99.90;;;;;;5036649;28;20231;-67
2022/07/05 05:06:13;;;;;;;2.27;2.07;;;14.30;99.90;;;;;;5018795;28;21317;-64
2022/07/05 05:08:42;;;;;;;2.83;2.10;;;14.40;99.90;;;;;;5041411;28;20420;-66
2022/07/05 05:11:09;;;;;;;3.80;2.03;;;14.60;99.90;;;;;;5027126;28;20453;-70
2022/07/05 05:13:36;;;;;;;5.23;2.33;;;14.60;99.90;;;;;;5033686;28;20230;-63
2022/07/05 05:16:02;;;;;;;3.50;1.90;;;14.70;99.90;;;;;;5037686;28;20649;-63
2022/07/05 05:18:30;;;;;;;3.73;2.60;;;14.80;99.90;;;;;;5035949;28;20204;-66
2022/07/05 05:20:57;;;;;;;2.25;2.03;;;14.80;99.90;;;;;;5022819;28;20452;-66
2022/07/05 05:23:24;;;;;;;4.05;2.38;;;14.90;99.90;;;;;;5027178;28;20460;-67
2022/07/05 05:25:52;;;;;;;3.95;2.30;;;15.20;99.90;;;;;;5025151;28;20473;-63
2022/07/05 05:28:18;;;;;;;3.08;1.80;;;15.40;99.90;;;;;;5039130;28;20489;-63
2022/07/05 05:30:46;;;;;;;2.37;2.03;;;15.30;99.90;;;;;;5028746;28;20558;-64
2022/07/05 05:33:13;;;;;;;3.08;1.83;;;15.50;99.90;;;;;;5033304;28;21057;-64
2022/07/05 05:35:40;;;;;;;3.70;1.70;;;15.80;99.90;;;;;;5040386;28;20195;-61
2022/07/05 05:38:07;;;;;;;4.27;2.20;;;15.60;99.90;;;;;;5011417;28;20448;-65
2022/07/05 05:40:34;;;;;;;4.60;2.17;;;15.70;99.90;;;;;;5029056;28;20951;-64
2022/07/05 05:43:02;;;;;;;4.13;1.80;;;15.80;99.90;;;;;;5034683;28;20465;-64
2022/07/05 05:45:28;;;;;;;2.28;1.58;;;15.80;99.90;;;;;;5025130;28;20356;-64
2022/07/05 05:47:57;;;;;;;3.03;1.67;;;15.70;99.90;;;;;;5039786;28;20446;-66
2022/07/05 05:50:26;;;;;;;2.67;1.52;;;15.70;99.90;;;;;;5038492;28;20447;-66
2022/07/05 05:52:54;;;;;;;3.25;1.85;;;16.00;99.90;;;;;;5015536;28;20985;-64
2022/07/05 05:55:22;;;;;;;3.70;1.83;;;16.20;99.90;;;;;;5030240;28;20191;-63
2022/07/05 05:57:49;;;;;;;3.92;1.40;;;16.10;99.90;;;;;;5030634;28;20479;-62
2022/07/05 06:00:19;;;;;;;4.13;2.10;;;16.30;99.90;;;;;;5023977;28;20285;-63
2022/07/05 06:02:49;;;;;;;8.97;5.57;;;16.30;99.90;;;;;;5039303;28;20302;-62
2022/07/05 06:05:16;;;;;;;5.90;4.95;;;16.20;99.90;;;;;;5028432;28;20441;-62
2022/07/05 06:07:48;;;;;;;3.40;1.70;;;16.30;99.90;;;;;;5023040;28;20427;-62
2022/07/05 06:10:21;;;;;;;3.58;2.28;;;16.60;99.90;;;;;;5020911;28;20519;-63
2022/07/05 06:12:47;;;;;;;2.50;1.70;;;16.70;99.90;;;;;;5023650;28;20446;-61
2022/07/05 06:15:15;;;;;;;3.05;1.80;;;16.90;99.90;;;;;;5032450;28;20416;-63
2022/07/05 06:17:44;;;;;;;2.60;1.50;;;16.90;99.90;;;;;;5031415;28;20814;-62
2022/07/05 06:20:13;;;;;;;2.60;1.27;;;17.10;99.90;;;;;;5034073;28;20428;-62
2022/07/05 06:22:40;;;;;;;2.60;1.90;;;17.10;99.90;;;;;;5040943;28;20439;-62
2022/07/05 06:25:08;;;;;;;5.40;1.73;;;17.30;99.90;;;;;;5023378;28;20227;-62
2022/07/05 06:27:39;;;;;;;4.63;1.10;;;17.00;99.90;;;;;;5034159;28;20226;-61
2022/07/05 06:30:08;;;;;;;4.80;1.70;;;16.80;99.90;;;;;;5018777;28;20536;-62
2022/07/05 06:32:34;;;;;;;2.78;2.15;;;16.70;99.90;;;;;;5033497;28;20797;-62
2022/07/05 06:35:03;;;;;;;7.83;1.67;;;17.00;99.90;;;;;;5039459;28;20665;-61
2022/07/05 06:37:41;;;;;;;5.37;1.43;;;16.90;99.90;;;;;;5035689;28;20199;-62
2022/07/05 06:40:10;;;;;;;2.97;1.43;;;16.80;99.90;;;;;;5026731;28;20940;-62
2022/07/05 06:42:37;;;;;;;1.60;1.20;;;17.10;99.90;;;;;;5039509;28;20440;-63
2022/07/05 06:45:05;;;;;;;3.60;1.60;;;17.10;99.90;;;;;;5026123;28;20719;-62
2022/07/05 06:47:31;;;;;;;1.23;1.10;;;17.00;99.90;;;;;;5020737;28;20207;-62
2022/07/05 06:49:58;;;;;;;2.53;1.43;;;17.00;99.90;;;;;;5028445;28;20742;-62
2022/07/05 06:52:26;;;;;;;1.73;1.27;;;16.90;99.90;;;;;;5035392;28;20196;-62
2022/07/05 06:54:53;;;;;;;3.83;1.23;;;16.90;99.90;;;;;;5024159;28;20257;-62
2022/07/05 06:57:20;;;;;;;1.77;1.03;;;16.90;99.90;;;;;;5032835;28;20680;-62
2022/07/05 06:59:47;;;;;;;2.50;1.10;;;16.90;99.90;;;;;;5029297;28;20354;-62
2022/07/05 07:02:14;;;;;;;3.90;1.70;;;16.80;99.90;;;;;;5024493;28;20440;-63
2022/07/05 07:04:41;;;;;;;3.20;1.25;;;17.00;99.90;;;;;;5039577;28;20455;-63
2022/07/05 07:09:17;;;;;;;4.32;1.63;;;17.10;99.90;;;;;;5041225;28;20436;-63
2022/07/05 07:09:57;;;;;;;1.47;1.10;;;17.40;99.90;;;;;;5023308;28;20594;-63
2022/07/05 07:12:25;;;;;;;2.17;1.17;;;17.40;99.90;;;;;;5031074;28;20191;-63
2022/07/05 07:14:52;;;;;;;2.87;1.40;;;17.40;99.90;;;;;;5041993;28;20219;-63
2022/07/05 07:17:18;;;;;;;3.33;1.60;;;17.40;99.90;;;;;;5018261;28;20207;-63
2022/07/05 07:19:45;;;;;;;5.10;1.70;;;17.60;99.90;;;;;;5030906;28;20399;-63
2022/07/05 07:22:11;;;;;;;3.23;1.57;;;17.60;99.90;;;;;;5040759;28;20206;-63
2022/07/05 07:24:38;;;;;;;4.17;1.53;;;17.70;99.90;;;;;;5040500;28;20684;-63
2022/07/05 07:27:07;;;;;;;1.80;0.77;;;17.70;99.90;;;;;;5019189;28;20211;-63
2022/07/05 07:29:36;;;;;;;2.00;0.93;;;17.80;99.90;;;;;;5040964;28;20274;-63
2022/07/05 07:32:06;;;;;;;3.63;1.33;;;17.90;99.90;;;;;;5030562;28;20221;-63
2022/07/05 07:34:34;;;;;;;3.43;1.20;;;17.90;99.90;;;;;;5028295;28;20214;-63
2022/07/05 07:37:00;;;;;;;3.60;1.50;;;17.80;99.90;;;;;;5038447;28;20438;-63
2022/07/05 07:39:27;;;;;;;1.20;0.77;;;18.00;99.90;;;;;;5036613;28;20274;-63
2022/07/05 07:41:54;;;;;;;2.53;1.03;;;18.00;99.90;;;;;;5029958;28;20216;-63
2022/07/05 07:44:22;;;;;;;1.90;0.90;;;17.90;99.90;;;;;;5027111;28;20242;-63
2022/07/05 07:46:48;;;;;;;1.43;0.83;;;17.80;99.90;;;;;;5040428;28;20224;-63
2022/07/05 07:49:15;;;;;;;3.13;0.90;;;17.80;99.90;;;;;;5017477;28;20355;-63
2022/07/05 07:51:42;;;;;;;2.70;0.80;;;17.80;99.90;;;;;;5039405;28;20204;-63
2022/07/05 07:54:09;;;;;;;3.00;0.80;;;17.70;99.90;;;;;;5038621;28;20552;-63
2022/07/05 07:56:36;;;;;;;2.03;0.90;;;17.80;99.90;;;;;;5028937;28;20303;-62
2022/07/05 07:59:04;;;;;;;1.20;0.80;;;17.80;99.90;;;;;;5033575;28;20211;-61
2022/07/05 08:01:32;;;;;;;2.00;0.80;;;17.70;99.90;;;;;;5038743;28;20195;-62
2022/07/05 08:04:00;;;;;;;8.10;5.07;;;17.80;99.90;;;;;;5027538;28;20227;-62
2022/07/05 08:06:27;;;;;;;0.80;0.60;;;17.90;99.90;;;;;;5033308;28;20282;-62
2022/07/05 08:08:53;;;;;;;0.70;0.43;;;18.00;99.90;;;;;;5035747;28;20604;-62
2022/07/05 08:11:20;;;;;;;1.57;0.57;;;18.20;99.90;;;;;;5035285;28;20185;-62
2022/07/05 08:13:47;;;;;;;1.10;0.40;;;18.40;99.90;;;;;;5030325;28;20639;-62
2022/07/05 08:16:14;;;;;;;5.80;0.77;;;18.50;99.90;;;;;;5033826;28;20206;-63
2022/07/05 08:21:35;;;;;;;1.23;0.70;;;18.70;99.90;;;;;;5034161;28;20199;-63
2022/07/05 08:24:04;;;;;;;2.43;0.50;;;18.70;99.90;;;;;;5037756;28;20726;-62
2022/07/05 08:26:31;;;;;;;1.47;0.73;;;18.60;99.90;;;;;;5040316;28;20198;-62
2022/07/05 08:28:59;;;;;;;0.70;0.60;;;18.50;99.90;;;;;;5030199;28;20215;-62
2022/07/05 08:31:26;;;;;;;0.80;0.80;;;18.50;99.90;;;;;;5029169;28;20195;-62
2022/07/05 08:33:54;;;;;;;3.33;0.90;;;18.60;99.90;;;;;;5029115;28;20230;-62
2022/07/05 08:36:21;;;;;;;3.07;0.53;;;18.60;99.90;;;;;;5026830;28;20195;-62
2022/07/05 08:38:47;;;;;;;0.47;0.43;;;18.60;99.90;;;;;;5039817;28;20192;-62
2022/07/05 08:41:19;;;;;;;1.03;0.47;;;18.60;99.10;;;;;;5035488;28;20195;-62
2022/07/05 08:43:46;;;;;;;1.23;0.73;;;18.60;98.00;;;;;;5027976;28;20219;-62
2022/07/05 08:46:16;;;;;;;1.87;0.80;;;18.60;98.00;;;;;;5025466;28;20227;-62
2022/07/05 08:48:44;;;;;;;1.37;0.57;;;18.70;98.00;;;;;;5042678;28;20206;-62
2022/07/05 08:51:14;;;;;;;2.10;1.20;;;18.80;98.20;;;;;;5018259;28;20615;-62
2022/07/05 08:53:42;;;;;;;1.93;0.80;;;18.80;98.10;;;;;;5038484;28;20226;-62
2022/07/05 08:56:10;;;;;;;1.17;0.70;;;18.90;98.70;;;;;;5033415;28;20574;-62
2022/07/05 08:58:38;;;;;;;1.33;0.50;;;19.00;98.20;;;;;;5034748;28;20254;-62
2022/07/05 09:01:05;;;;;;;5.47;0.77;;;18.90;97.80;;;;;;5017519;28;20213;-62
2022/07/05 09:03:34;;;;;;;0.30;0.30;;;19.00;97.60;;;;;;5036734;28;20207;-62
2022/07/05 09:06:02;;;;;;;2.40;0.70;;;18.90;96.70;;;;;;5026449;28;20211;-62
2022/07/05 09:08:33;;;;;;;0.80;0.40;;;18.80;96.50;;;;;;5032536;28;20203;-62
2022/07/05 09:11:02;;;;;;;0.90;0.47;;;18.90;96.50;;;;;;5035726;28;20560;-63
2022/07/05 09:13:29;;;;;;;2.40;0.93;;;19.00;96.20;;;;;;5038132;28;20215;-62
2022/07/05 09:15:56;;;;;;;0.43;0.40;;;19.00;96.20;;;;;;5028380;28;20233;-63
2022/07/05 09:18:42;;;;;;;3.03;0.50;;;19.10;96.10;;;;;;5029808;28;20207;-62
2022/07/05 09:21:20;;;;;;;0.50;0.30;;;19.30;97.00;;;;;;5020815;28;20216;-63
2022/07/05 09:23:55;;;;;;;1.40;0.30;;;19.40;94.90;;;;;;5038805;28;20323;-61
2022/07/05 09:26:27;;;;;;;1.50;0.40;;;19.40;92.40;;;;;;5033442;28;20218;-62
2022/07/05 09:28:58;;;;;;;0.20;0.20;;;19.40;93.10;;;;;;5030347;28;20207;-63
2022/07/05 09:31:29;;;;;;;3.17;0.40;;;19.40;92.80;;;;;;5016852;28;20215;-63
2022/07/05 09:34:05;;;;;;;3.33;0.60;;;19.30;92.50;;;;;;5041324;28;20741;-63
2022/07/05 09:36:54;;;;;;;2.40;0.30;;;19.20;92.60;;;;;;5030900;28;20191;-63
2022/07/05 09:39:38;;;;;;;0.53;0.40;;;19.10;91.80;;;;;;5029667;28;20191;-63
2022/07/05 09:42:12;;;;;;;1.10;0.40;;;19.00;92.30;;;;;;5030634;28;20207;-63
2022/07/05 09:44:39;;;;;;;1.13;0.43;;;19.00;93.10;;;;;;5032679;28;20301;-63
2022/07/05 09:47:13;;;;;;;2.30;0.60;;;19.10;93.50;;;;;;5024675;28;20219;-62
2022/07/05 09:49:42;;;;;;;2.50;0.57;;;19.10;94.00;;;;;;5036742;28;20209;-62
2022/07/05 09:52:09;;;;;;;1.60;0.50;;;19.20;94.40;;;;;;5029834;28;20243;-63
2022/07/05 09:54:37;;;;;;;3.33;0.60;;;19.20;94.20;;;;;;5031019;28;20222;-63
2022/07/05 09:57:05;;;;;;;1.40;0.60;;;19.30;94.10;;;;;;5038416;28;20602;-63
2022/07/05 09:59:32;;;;;;;1.87;0.43;;;19.40;94.00;;;;;;5040714;28;20195;-63
2022/07/05 10:01:58;;;;;;;1.10;0.30;;;19.50;93.20;;;;;;5032638;28;20196;-63
2022/07/05 10:04:25;;;;;;;0.83;0.20;;;19.70;92.60;;;;;;5029281;28;20325;-62
2022/07/05 10:06:53;;;;;;;1.27;0.27;;;19.70;90.30;;;;;;5034726;28;20290;-62
2022/07/05 10:09:20;;;;;;;1.10;0.60;;;19.80;89.20;;;;;;5031714;28;20214;-63
2022/07/05 10:11:48;;;;;;;3.87;0.50;;;20.00;90.10;;;;;;5034005;28;20215;-63
2022/07/05 10:14:20;;;;;;;0.80;0.30;;;20.00;89.00;;;;;;5041652;28;20227;-62
2022/07/05 10:16:58;;;;;;;0.80;0.40;;;19.90;89.60;;;;;;5041050;28;20187;-62
2022/07/05 10:19:29;;;;;;;1.20;0.50;;;19.90;86.10;;;;;;5018407;28;20294;-62
2022/07/05 10:21:56;;;;;;;0.67;0.40;;;19.90;85.50;;;;;;5044165;28;20211;-63
2022/07/05 10:24:22;;;;;;;1.80;0.20;;;20.00;85.70;;;;;;5025566;28;21040;-62
2022/07/05 10:26:51;;;;;;;1.20;0.17;;;20.20;85.90;;;;;;5041481;28;20222;-62
2022/07/05 10:29:18;;;;;;;1.23;0.50;;;20.30;85.40;;;;;;5032543;28;20226;-62
2022/07/05 10:31:46;;;;;;;0.63;0.30;;;20.50;86.30;;;;;;5045300;28;20203;-62
2022/07/05 10:34:14;;;;;;;1.63;0.30;;;20.70;86.20;;;;;;5023700;28;20234;-62
2022/07/05 10:36:42;;;;;;;0.80;0.20;;;20.80;85.10;;;;;;5044619;28;20278;-62
2022/07/05 10:39:10;;;;;;;1.20;0.20;;;20.60;84.30;;;;;;5026920;28;20227;-63
2022/07/05 10:41:40;;;;;;;0.77;0.20;;;20.50;84.50;;;;;;5044316;28;20207;-62
2022/07/05 10:44:08;;;;;;;1.37;0.50;;;20.50;84.10;;;;;;5042453;28;20227;-63
2022/07/05 10:46:36;;;;;;;0.53;0.20;;;20.50;83.70;;;;;;5043086;28;20679;-67
2022/07/05 10:49:21;;;;;;;0.50;0.40;;;20.50;83.70;;;;;;5035737;28;20215;-63
2022/07/05 10:51:49;;;;;;;1.70;0.30;;;20.50;81.30;;;;;;5030070;28;20207;-64
2022/07/05 10:54:16;;;;;;;0.50;0.50;;;20.40;83.90;;;;;;5024354;28;20227;-61
2022/07/05 10:57:21;;;;;;;3.00;0.80;;;20.40;83.60;;;;;;5036565;28;20203;-61
2022/07/05 11:00:07;;;;;;;2.10;0.37;;;20.40;83.30;;;;;;5044361;28;20195;-60
2022/07/05 11:02:34;;;;;;;1.90;0.23;;;20.50;82.50;;;;;;5033934;28;20211;-61
2022/07/05 11:05:02;;;;;;;1.40;0.37;;;20.50;82.60;;;;;;5042446;28;20254;-62
2022/07/05 11:07:59;;;;;;;2.83;0.40;;;20.70;82.50;;;;;;5029135;28;20211;-61
2022/07/05 11:10:27;;;;;;;0.90;0.47;;;20.70;82.10;;;;;;5028072;28;23780;-61
2022/07/05 11:12:54;;;;;;;1.37;0.37;;;20.90;82.40;;;;;;5037425;28;20231;-62
2022/07/05 11:15:22;;;;;;;0.90;0.33;;;21.00;82.10;;;;;;5032491;28;20361;-62
2022/07/05 11:17:49;;;;;;;0.40;0.30;;;20.80;80.20;;;;;;5040467;28;20210;-63
2022/07/05 11:20:21;;;;;;;2.40;0.30;;;20.50;80.60;;;;;;5038444;28;21011;-63
2022/07/05 11:23:09;;;;;;;0.57;0.20;;;20.40;81.10;;;;;;5028151;28;20589;-62
2022/07/05 11:25:39;;;;;;;3.20;0.40;;;20.40;82.20;;;;;;5028666;28;20230;-63
2022/07/05 11:28:08;;;;;;;1.03;0.30;;;20.40;81.70;;;;;;5041074;28;20667;-61
2022/07/05 11:30:55;;;;;;;0.63;0.30;;;20.30;82.60;;;;;;5039139;28;20219;-62
2022/07/05 11:33:34;;;;;;;2.00;0.60;;;20.40;84.50;;;;;;5036521;28;20906;-62
2022/07/05 11:36:01;;;;;;;0.70;0.30;;;20.60;84.30;;;;;;5037412;28;20219;-62
2022/07/05 11:38:30;;;;;;;2.50;0.50;;;20.70;83.30;;;;;;5027617;28;20203;-62
2022/07/05 11:41:10;;;;;;;0.73;0.30;;;20.80;83.20;;;;;;5030188;28;20200;-62
2022/07/05 11:43:38;;;;;;;0.50;0.20;;;21.00;82.50;;;;;;5041184;28;20227;-63
2022/07/05 11:46:06;;;;;;;3.80;0.60;;;21.10;81.70;;;;;;5030598;28;20215;-63
2022/07/05 11:48:33;;;;;;;0.87;0.40;;;21.10;80.90;;;;;;5039768;28;20196;-62
2022/07/05 11:51:13;;;;;;;0.20;0.20;;;21.10;81.70;;;;;;5037042;28;20196;-62
2022/07/05 11:53:42;;;;;;;2.07;0.30;;;21.40;80.80;;;;;;5024776;28;20625;-62
2022/07/05 11:56:09;;;;;;;1.27;0.30;;;21.50;78.70;;;;;;5029793;28;20276;-62
2022/07/05 11:58:36;;;;;;;0.40;0.40;;;21.60;78.20;;;;;;5040003;28;20210;-62
2022/07/05 12:01:03;;;;;;;1.17;0.40;;;21.50;78.30;;;;;;5032317;28;20668;-62
2022/07/05 12:03:31;;;;;;;1.63;0.50;;;21.40;78.30;;;;;;5033005;28;20265;-61
2022/07/05 12:05:58;;;;;;;0.63;0.30;;;21.20;79.80;;;;;;5036112;28;20711;-62
2022/07/05 12:08:26;;;;;;;0.83;0.50;;;21.30;80.50;;;;;;5027112;28;20207;-63
2022/07/05 12:13:45;;;;;;;0.40;0.30;;;21.50;80.50;;;;;;5037185;28;20215;-63
2022/07/05 12:16:12;;;;;;;1.50;0.30;;;21.50;79.40;;;;;;5027313;28;20203;-62
2022/07/05 12:18:49;;;;;;;1.73;0.50;;;21.70;78.70;;;;;;5035776;28;20219;-62
2022/07/05 12:21:16;;;;;;;0.43;0.40;;;21.90;78.10;;;;;;5033981;28;20207;-62
2022/07/05 12:23:44;;;;;;;2.33;0.30;;;21.80;77.10;;;;;;5039273;28;20219;-63
2022/07/05 12:26:12;;;;;;;0.30;0.30;;;21.50;77.90;;;;;;5025421;28;20246;-63
2022/07/05 12:28:39;;;;;;;0.60;0.37;;;21.30;78.30;;;;;;5031765;28;20207;-63
2022/07/05 12:31:19;;;;;;;0.37;0.33;;;21.20;78.90;;;;;;5034098;28;20195;-63
2022/07/05 12:33:49;;;;;;;2.40;0.60;;;21.10;79.10;;;;;;5035356;28;20592;-63
2022/07/05 12:36:17;;;;;;;2.00;0.30;;;21.00;79.90;;;;;;5035319;28;20191;-63
2022/07/05 12:38:44;;;;;;;1.77;0.37;;;20.90;80.80;;;;;;5031648;28;20191;-63
2022/07/05 12:41:12;;;;;;;2.20;0.70;;;20.90;81.30;;;;;;5024155;28;20230;-62
2022/07/05 12:43:52;;;;;;;0.63;0.43;;;21.10;81.80;;;;;;5025185;28;20219;-64
2022/07/05 12:46:19;;;;;;;0.77;0.23;;;21.20;80.80;;;;;;5033282;28;20219;-61
2022/07/05 12:48:51;;;;;;;0.70;0.33;;;21.20;81.90;;;;;;5039627;28;20202;-61
2022/07/05 12:51:33;;;;;;;0.73;0.50;;;21.10;82.30;;;;;;5035642;28;20199;-61
2022/07/05 12:59:57;;;;;;;0.87;0.43;;;20.60;83.10;;;;;;5014735;28;20218;-64
2022/07/05 13:02:34;;;;;;;1.20;0.63;;;20.50;83.40;;;;;;5035307;28;20191;-62
2022/07/05 13:05:01;;;;;;;1.33;0.40;;;20.50;83.70;;;;;;5027579;28;20230;-62
2022/07/05 13:07:29;;;;;;;0.83;0.40;;;20.50;84.60;;;;;;5038305;28;20222;-62